sensor_id;sensor_type;location;lat;lon;timestamp;P1;P2;P0
51320;PMS5003;38732;49.556;6.286;2023-03-20T00:02:19;5.00;5.00;3.60
51320;PMS5003;38732;49.556;6.286;2023-03-20T00:04:49;8.00;5.80;3.80
51320;PMS5003;38732;49.556;6.286;2023-03-20T00:07:18;8.75;8.75;5.25
51320;PMS5003;38732;49.556;6.286;2023-03-20T00:09:46;14.75;11.00;6.00
51320;PMS5003;38732;49.556;6.286;2023-03-20T00:12:16;13.75;12.00;6.50
51320;PMS5003;38732;49.556;6.286;2023-03-20T00:14:49;13.00;12.00;7.60
51320;PMS5003;38732;49.556;6.286;2023-03-20T00:17:18;9.50;9.25;4.25
51320;PMS5003;38732;49.556;6.286;2023-03-20T00:19:47;9.60;9.60;5.40
51320;PMS5003;38732;49.556;6.286;2023-03-20T00:22:16;12.25;9.00;6.00
51320;PMS5003;38732;49.556;6.286;2023-03-20T00:24:44;11.00;8.75;5.00
51320;PMS5003;38732;49.556;6.286;2023-03-20T00:27:13;10.50;10.25;5.50
51320;PMS5003;38732;49.556;6.286;2023-03-20T00:29:42;12.40;9.80;7.00
51320;PMS5003;38732;49.556;6.286;2023-03-20T00:32:11;3.75;3.75;1.00
51320;PMS5003;38732;49.556;6.286;2023-03-20T00:34:40;10.80;10.60;6.00
51320;PMS5003;38732;49.556;6.286;2023-03-20T00:37:09;12.75;11.50;8.00
51320;PMS5003;38732;49.556;6.286;2023-03-20T00:39:37;11.75;10.50;5.25
51320;PMS5003;38732;49.556;6.286;2023-03-20T00:42:08;13.00;12.00;6.20
51320;PMS5003;38732;49.556;6.286;2023-03-20T00:44:50;14.00;11.80;7.80
51320;PMS5003;38732;49.556;6.286;2023-03-20T00:47:21;10.40;10.40;6.00
51320;PMS5003;38732;49.556;6.286;2023-03-20T00:49:50;11.80;11.80;7.20
51320;PMS5003;38732;49.556;6.286;2023-03-20T00:52:21;15.20;11.20;6.00
51320;PMS5003;38732;49.556;6.286;2023-03-20T00:54:50;12.00;11.60;6.20
51320;PMS5003;38732;49.556;6.286;2023-03-20T00:57:25;14.25;12.75;6.25
51320;PMS5003;38732;49.556;6.286;2023-03-20T01:00:10;11.80;10.00;5.60
51320;PMS5003;38732;49.556;6.286;2023-03-20T01:02:40;11.80;11.80;6.00
51320;PMS5003;38732;49.556;6.286;2023-03-20T01:05:08;15.25;10.25;5.00
51320;PMS5003;38732;49.556;6.286;2023-03-20T01:07:36;13.00;13.00;6.00
51320;PMS5003;38732;49.556;6.286;2023-03-20T01:10:05;17.00;12.50;9.00
51320;PMS5003;38732;49.556;6.286;2023-03-20T01:12:33;12.75;11.00;6.00
51320;PMS5003;38732;49.556;6.286;2023-03-20T01:15:01;15.75;14.50;7.50
51320;PMS5003;38732;49.556;6.286;2023-03-20T01:17:30;13.00;10.75;6.50
51320;PMS5003;38732;49.556;6.286;2023-03-20T01:19:58;13.00;13.00;8.00
51320;PMS5003;38732;49.556;6.286;2023-03-20T01:22:26;14.25;10.50;7.00
51320;PMS5003;38732;49.556;6.286;2023-03-20T01:24:55;15.75;15.50;6.50
51320;PMS5003;38732;49.556;6.286;2023-03-20T01:27:23;23.25;14.75;7.75
51320;PMS5003;38732;49.556;6.286;2023-03-20T01:29:51;9.25;9.25;2.00
51320;PMS5003;38732;49.556;6.286;2023-03-20T01:32:19;11.50;11.00;6.75
51320;PMS5003;38732;49.556;6.286;2023-03-20T01:34:47;10.50;10.50;4.00
51320;PMS5003;38732;49.556;6.286;2023-03-20T01:37:17;19.00;16.50;8.75
51320;PMS5003;38732;49.556;6.286;2023-03-20T01:39:50;17.80;16.00;10.00
51320;PMS5003;38732;49.556;6.286;2023-03-20T01:42:19;21.75;18.50;11.00
51320;PMS5003;38732;49.556;6.286;2023-03-20T01:44:47;20.00;18.75;9.75
51320;PMS5003;38732;49.556;6.286;2023-03-20T01:47:17;25.75;21.25;10.50
51320;PMS5003;38732;49.556;6.286;2023-03-20T01:53:10;23.20;21.60;12.80
51320;PMS5003;38732;49.556;6.286;2023-03-20T01:55:43;23.20;19.20;10.40
51320;PMS5003;38732;49.556;6.286;2023-03-20T01:58:18;22.80;19.40;10.80
51320;PMS5003;38732;49.556;6.286;2023-03-20T02:00:52;21.60;20.60;11.40
51320;PMS5003;38732;49.556;6.286;2023-03-20T02:03:20;22.75;18.00;12.00
51320;PMS5003;38732;49.556;6.286;2023-03-20T02:05:50;20.80;19.00;11.60
51320;PMS5003;38732;49.556;6.286;2023-03-20T02:08:26;26.75;20.75;9.75
51320;PMS5003;38732;49.556;6.286;2023-03-20T02:10:57;28.60;23.40;13.00
51320;PMS5003;38732;49.556;6.286;2023-03-20T02:13:28;30.20;22.60;12.20
51320;PMS5003;38732;49.556;6.286;2023-03-20T02:18:38;28.80;25.00;13.60
51320;PMS5003;38732;49.556;6.286;2023-03-20T02:27:05;29.40;26.40;13.00
51320;PMS5003;38732;49.556;6.286;2023-03-20T02:35:38;31.60;28.80;11.80
51320;PMS5003;38732;49.556;6.286;2023-03-20T02:41:33;27.40;23.20;12.40
51320;PMS5003;38732;49.556;6.286;2023-03-20T02:44:13;34.40;29.00;16.60
51320;PMS5003;38732;49.556;6.286;2023-03-20T02:46:58;33.60;28.20;14.00
51320;PMS5003;38732;49.556;6.286;2023-03-20T02:52:39;28.40;23.00;11.20
51320;PMS5003;38732;49.556;6.286;2023-03-20T03:01:11;21.00;17.60;8.40
51320;PMS5003;38732;49.556;6.286;2023-03-20T03:03:46;32.20;28.80;14.00
51320;PMS5003;38732;49.556;6.286;2023-03-20T03:06:28;28.40;23.00;13.80
51320;PMS5003;38732;49.556;6.286;2023-03-20T03:09:11;34.40;29.00;16.00
51320;PMS5003;38732;49.556;6.286;2023-03-20T03:11:44;31.00;30.00;14.60
51320;PMS5003;38732;49.556;6.286;2023-03-20T03:14:39;32.20;26.20;15.80
51320;PMS5003;38732;49.556;6.286;2023-03-20T03:17:08;32.00;25.60;14.60
51320;PMS5003;38732;49.556;6.286;2023-03-20T03:19:41;36.40;27.80;14.40
51320;PMS5003;38732;49.556;6.286;2023-03-20T03:22:14;27.80;25.80;14.40
51320;PMS5003;38732;49.556;6.286;2023-03-20T03:24:44;35.00;28.80;15.20
51320;PMS5003;38732;49.556;6.286;2023-03-20T03:27:16;28.20;26.40;13.20
51320;PMS5003;38732;49.556;6.286;2023-03-20T03:29:49;33.80;26.80;11.40
51320;PMS5003;38732;49.556;6.286;2023-03-20T03:32:29;20.60;20.20;11.20
51320;PMS5003;38732;49.556;6.286;2023-03-20T03:35:01;26.80;26.00;13.00
51320;PMS5003;38732;49.556;6.286;2023-03-20T03:37:38;32.40;26.60;14.40
51320;PMS5003;38732;49.556;6.286;2023-03-20T03:40:10;35.40;28.80;13.40
51320;PMS5003;38732;49.556;6.286;2023-03-20T03:45:43;31.20;28.00;13.80
51320;PMS5003;38732;49.556;6.286;2023-03-20T03:48:20;23.40;18.60;12.00
51320;PMS5003;38732;49.556;6.286;2023-03-20T03:50:54;25.00;22.00;10.80
51320;PMS5003;38732;49.556;6.286;2023-03-20T03:53:35;24.40;22.20;12.00
51320;PMS5003;38732;49.556;6.286;2023-03-20T03:56:09;27.60;22.20;12.00
51320;PMS5003;38732;49.556;6.286;2023-03-20T03:58:41;28.20;24.60;11.40
51320;PMS5003;38732;49.556;6.286;2023-03-20T04:01:12;25.00;22.20;9.80
51320;PMS5003;38732;49.556;6.286;2023-03-20T04:03:53;27.20;21.40;11.40
51320;PMS5003;38732;49.556;6.286;2023-03-20T04:06:26;22.20;21.00;9.00
51320;PMS5003;38732;49.556;6.286;2023-03-20T04:08:55;30.40;21.80;11.80
51320;PMS5003;38732;49.556;6.286;2023-03-20T04:11:24;29.25;25.75;12.75
51320;PMS5003;38732;49.556;6.286;2023-03-20T04:13:53;30.00;19.00;10.80
51320;PMS5003;38732;49.556;6.286;2023-03-20T04:16:22;23.00;21.50;11.25
51320;PMS5003;38732;49.556;6.286;2023-03-20T04:18:51;26.20;23.20;12.20
51320;PMS5003;38732;49.556;6.286;2023-03-20T04:21:20;26.80;24.80;12.20
51320;PMS5003;38732;49.556;6.286;2023-03-20T04:23:49;28.75;23.75;13.25
51320;PMS5003;38732;49.556;6.286;2023-03-20T04:26:17;38.50;28.00;14.00
51320;PMS5003;38732;49.556;6.286;2023-03-20T04:28:45;24.50;23.00;12.50
51320;PMS5003;38732;49.556;6.286;2023-03-20T04:31:13;34.00;27.25;12.50
51320;PMS5003;38732;49.556;6.286;2023-03-20T04:33:42;24.50;23.00;11.75
51320;PMS5003;38732;49.556;6.286;2023-03-20T04:36:10;31.25;26.50;14.50
51320;PMS5003;38732;49.556;6.286;2023-03-20T04:38:39;22.75;22.00;11.00
51320;PMS5003;38732;49.556;6.286;2023-03-20T04:41:07;27.80;25.60;13.80
51320;PMS5003;38732;49.556;6.286;2023-03-20T04:43:36;28.75;24.25;11.75
51320;PMS5003;38732;49.556;6.286;2023-03-20T04:46:04;37.00;29.50;16.25
51320;PMS5003;38732;49.556;6.286;2023-03-20T04:48:32;29.25;25.50;14.00
51320;PMS5003;38732;49.556;6.286;2023-03-20T04:51:01;30.00;25.75;14.25
51320;PMS5003;38732;49.556;6.286;2023-03-20T04:53:29;30.75;28.25;13.25
51320;PMS5003;38732;49.556;6.286;2023-03-20T04:55:57;21.25;17.50;10.75
51320;PMS5003;38732;49.556;6.286;2023-03-20T04:58:25;25.00;23.00;10.00
51320;PMS5003;38732;49.556;6.286;2023-03-20T05:00:53;22.75;20.50;7.50
51320;PMS5003;38732;49.556;6.286;2023-03-20T05:03:21;25.00;20.75;10.25
51320;PMS5003;38732;49.556;6.286;2023-03-20T05:05:50;27.00;24.75;13.25
51320;PMS5003;38732;49.556;6.286;2023-03-20T05:08:18;30.25;20.25;13.00
51320;PMS5003;38732;49.556;6.286;2023-03-20T05:10:46;29.75;25.25;13.25
51320;PMS5003;38732;49.556;6.286;2023-03-20T05:13:14;29.00;26.25;13.00
51320;PMS5003;38732;49.556;6.286;2023-03-20T05:15:43;30.75;25.75;13.50
51320;PMS5003;38732;49.556;6.286;2023-03-20T05:18:11;29.50;24.75;11.50
51320;PMS5003;38732;49.556;6.286;2023-03-20T05:20:39;24.00;23.75;13.75
51320;PMS5003;38732;49.556;6.286;2023-03-20T05:23:07;26.75;22.00;10.50
51320;PMS5003;38732;49.556;6.286;2023-03-20T05:25:35;25.50;23.00;13.00
51320;PMS5003;38732;49.556;6.286;2023-03-20T05:28:04;25.75;20.75;9.75
51320;PMS5003;38732;49.556;6.286;2023-03-20T05:30:32;27.50;25.25;13.00
51320;PMS5003;38732;49.556;6.286;2023-03-20T05:33:00;24.50;21.00;11.50
51320;PMS5003;38732;49.556;6.286;2023-03-20T05:35:28;25.00;21.00;12.25
51320;PMS5003;38732;49.556;6.286;2023-03-20T05:37:56;21.00;18.00;9.50
51320;PMS5003;38732;49.556;6.286;2023-03-20T05:40:25;25.75;22.00;13.00
51320;PMS5003;38732;49.556;6.286;2023-03-20T05:42:53;23.75;21.50;10.00
51320;PMS5003;38732;49.556;6.286;2023-03-20T05:45:21;28.25;21.00;11.50
51320;PMS5003;38732;49.556;6.286;2023-03-20T05:47:49;26.00;24.00;12.25
51320;PMS5003;38732;49.556;6.286;2023-03-20T05:50:17;28.25;25.75;10.00
51320;PMS5003;38732;49.556;6.286;2023-03-20T05:52:46;24.75;21.50;12.50
51320;PMS5003;38732;49.556;6.286;2023-03-20T05:55:15;25.25;19.25;11.00
51320;PMS5003;38732;49.556;6.286;2023-03-20T05:57:43;22.00;22.00;12.25
51320;PMS5003;38732;49.556;6.286;2023-03-20T06:00:11;23.25;19.75;9.75
51320;PMS5003;38732;49.556;6.286;2023-03-20T06:02:40;25.75;23.00;12.75
51320;PMS5003;38732;49.556;6.286;2023-03-20T06:05:08;23.00;21.00;11.50
51320;PMS5003;38732;49.556;6.286;2023-03-20T06:07:36;30.75;27.75;13.00
51320;PMS5003;38732;49.556;6.286;2023-03-20T06:10:05;28.50;28.25;12.00
51320;PMS5003;38732;49.556;6.286;2023-03-20T06:12:33;24.50;22.00;11.00
51320;PMS5003;38732;49.556;6.286;2023-03-20T06:15:02;29.50;23.00;11.50
51320;PMS5003;38732;49.556;6.286;2023-03-20T06:17:30;27.25;23.25;12.25
51320;PMS5003;38732;49.556;6.286;2023-03-20T06:19:58;29.00;26.25;9.75
51320;PMS5003;38732;49.556;6.286;2023-03-20T06:22:26;24.00;23.75;13.00
51320;PMS5003;38732;49.556;6.286;2023-03-20T06:24:55;29.50;25.00;13.00
51320;PMS5003;38732;49.556;6.286;2023-03-20T06:27:23;28.75;26.00;12.75
51320;PMS5003;38732;49.556;6.286;2023-03-20T06:29:51;21.50;20.25;8.00
51320;PMS5003;38732;49.556;6.286;2023-03-20T06:32:19;26.50;19.75;10.00
51320;PMS5003;38732;49.556;6.286;2023-03-20T06:34:48;29.50;24.25;13.00
51320;PMS5003;38732;49.556;6.286;2023-03-20T06:37:17;29.25;21.50;11.25
51320;PMS5003;38732;49.556;6.286;2023-03-20T06:39:46;32.00;25.80;13.40
51320;PMS5003;38732;49.556;6.286;2023-03-20T06:42:14;27.00;25.75;13.00
51320;PMS5003;38732;49.556;6.286;2023-03-20T06:44:42;12.50;7.75;0.25
51320;PMS5003;38732;49.556;6.286;2023-03-20T06:47:11;27.75;25.50;13.00
51320;PMS5003;38732;49.556;6.286;2023-03-20T06:49:39;28.75;25.75;13.75
51320;PMS5003;38732;49.556;6.286;2023-03-20T06:52:07;26.25;24.00;12.75
51320;PMS5003;38732;49.556;6.286;2023-03-20T06:54:41;29.40;26.80;17.00
51320;PMS5003;38732;49.556;6.286;2023-03-20T06:57:10;29.75;26.00;9.50
51320;PMS5003;38732;49.556;6.286;2023-03-20T06:59:38;35.25;29.00;14.00
51320;PMS5003;38732;49.556;6.286;2023-03-20T07:02:06;32.50;29.00;13.75
51320;PMS5003;38732;49.556;6.286;2023-03-20T07:04:36;34.60;28.00;11.40
51320;PMS5003;38732;49.556;6.286;2023-03-20T07:07:04;35.50;28.50;14.00
51320;PMS5003;38732;49.556;6.286;2023-03-20T07:09:33;30.25;29.00;14.50
51320;PMS5003;38732;49.556;6.286;2023-03-20T07:12:01;32.75;29.75;13.75
51320;PMS5003;38732;49.556;6.286;2023-03-20T07:14:30;24.25;21.75;9.00
51320;PMS5003;38732;49.556;6.286;2023-03-20T07:16:58;26.50;21.50;9.50
51320;PMS5003;38732;49.556;6.286;2023-03-20T07:19:26;31.00;24.75;12.00
51320;PMS5003;38732;49.556;6.286;2023-03-20T07:21:55;33.00;28.50;12.00
51320;PMS5003;38732;49.556;6.286;2023-03-20T07:24:27;36.20;30.20;17.20
51320;PMS5003;38732;49.556;6.286;2023-03-20T07:26:55;38.25;34.25;18.00
51320;PMS5003;38732;49.556;6.286;2023-03-20T07:29:23;26.50;24.00;13.25
51320;PMS5003;38732;49.556;6.286;2023-03-20T07:31:51;33.75;30.75;17.00
51320;PMS5003;38732;49.556;6.286;2023-03-20T07:34:20;31.25;25.50;13.00
51320;PMS5003;38732;49.556;6.286;2023-03-20T07:36:48;27.00;20.50;11.50
51320;PMS5003;38732;49.556;6.286;2023-03-20T07:39:16;30.75;25.75;10.50
51320;PMS5003;38732;49.556;6.286;2023-03-20T07:41:44;31.75;26.25;14.25
51320;PMS5003;38732;49.556;6.286;2023-03-20T07:44:12;30.50;27.75;12.00
51320;PMS5003;38732;49.556;6.286;2023-03-20T07:46:41;26.75;24.75;11.75
51320;PMS5003;38732;49.556;6.286;2023-03-20T07:49:09;29.75;26.25;13.25
51320;PMS5003;38732;49.556;6.286;2023-03-20T07:51:37;26.00;22.25;11.00
51320;PMS5003;38732;49.556;6.286;2023-03-20T07:54:05;26.75;24.25;13.25
51320;PMS5003;38732;49.556;6.286;2023-03-20T07:56:33;26.25;20.00;9.50
51320;PMS5003;38732;49.556;6.286;2023-03-20T07:59:02;22.75;20.25;10.00
51320;PMS5003;38732;49.556;6.286;2023-03-20T08:01:30;23.00;18.75;10.00
51320;PMS5003;38732;49.556;6.286;2023-03-20T08:03:59;26.50;26.25;14.25
51320;PMS5003;38732;49.556;6.286;2023-03-20T08:06:27;28.50;25.25;12.75
51320;PMS5003;38732;49.556;6.286;2023-03-20T08:08:55;24.75;20.00;10.25
51320;PMS5003;38732;49.556;6.286;2023-03-20T08:11:23;26.50;22.25;11.00
51320;PMS5003;38732;49.556;6.286;2023-03-20T08:13:51;27.50;25.25;13.50
51320;PMS5003;38732;49.556;6.286;2023-03-20T08:16:20;21.50;21.50;9.50
51320;PMS5003;38732;49.556;6.286;2023-03-20T08:18:48;24.50;22.25;10.25
51320;PMS5003;38732;49.556;6.286;2023-03-20T08:21:16;26.75;23.50;10.75
51320;PMS5003;38732;49.556;6.286;2023-03-20T08:23:44;25.75;22.00;10.00
51320;PMS5003;38732;49.556;6.286;2023-03-20T08:26:12;28.50;21.25;12.00
51320;PMS5003;38732;49.556;6.286;2023-03-20T08:28:41;22.50;19.00;10.50
51320;PMS5003;38732;49.556;6.286;2023-03-20T08:31:09;26.75;21.50;13.00
51320;PMS5003;38732;49.556;6.286;2023-03-20T08:33:37;27.25;22.00;11.50
51320;PMS5003;38732;49.556;6.286;2023-03-20T08:36:05;21.00;18.25;9.50
51320;PMS5003;38732;49.556;6.286;2023-03-20T08:38:34;30.00;24.00;10.00
51320;PMS5003;38732;49.556;6.286;2023-03-20T08:41:02;24.00;21.00;10.75
51320;PMS5003;38732;49.556;6.286;2023-03-20T08:43:31;32.50;20.25;9.00
51320;PMS5003;38732;49.556;6.286;2023-03-20T08:45:59;29.75;22.25;11.00
51320;PMS5003;38732;49.556;6.286;2023-03-20T08:48:27;23.75;18.25;8.50
51320;PMS5003;38732;49.556;6.286;2023-03-20T08:50:55;17.75;15.50;8.00
51320;PMS5003;38732;49.556;6.286;2023-03-20T08:53:23;23.50;19.50;10.25
51320;PMS5003;38732;49.556;6.286;2023-03-20T08:55:52;20.25;15.25;8.00
51320;PMS5003;38732;49.556;6.286;2023-03-20T08:58:21;19.20;17.00;10.80
51320;PMS5003;38732;49.556;6.286;2023-03-20T09:00:50;17.75;15.00;10.50
51320;PMS5003;38732;49.556;6.286;2023-03-20T09:03:18;20.50;14.00;7.00
51320;PMS5003;38732;49.556;6.286;2023-03-20T09:05:48;16.20;16.00;9.60
51320;PMS5003;38732;49.556;6.286;2023-03-20T09:08:17;25.20;24.00;11.00
51320;PMS5003;38732;49.556;6.286;2023-03-20T09:10:46;24.25;15.75;9.00
51320;PMS5003;38732;49.556;6.286;2023-03-20T09:13:15;19.80;19.80;10.00
51320;PMS5003;38732;49.556;6.286;2023-03-20T09:15:44;21.50;19.75;13.25
51320;PMS5003;38732;49.556;6.286;2023-03-20T09:18:12;21.00;19.50;11.00
51320;PMS5003;38732;49.556;6.286;2023-03-20T09:20:40;19.75;18.00;11.00
51320;PMS5003;38732;49.556;6.286;2023-03-20T09:23:08;20.00;19.00;10.50
51320;PMS5003;38732;49.556;6.286;2023-03-20T09:25:36;23.50;18.50;9.00
51320;PMS5003;38732;49.556;6.286;2023-03-20T09:28:05;19.00;17.00;9.50
51320;PMS5003;38732;49.556;6.286;2023-03-20T09:30:33;15.00;11.00;7.00
51320;PMS5003;38732;49.556;6.286;2023-03-20T09:33:01;21.00;18.00;8.75
51320;PMS5003;38732;49.556;6.286;2023-03-20T09:35:29;20.50;16.00;10.50
51320;PMS5003;38732;49.556;6.286;2023-03-20T09:37:57;19.75;15.50;9.00
51320;PMS5003;38732;49.556;6.286;2023-03-20T09:40:26;19.50;16.00;8.25
51320;PMS5003;38732;49.556;6.286;2023-03-20T09:43:20;20.60;16.40;9.60
51320;PMS5003;38732;49.556;6.286;2023-03-20T09:53:55;15.20;14.80;8.00
51320;PMS5003;38732;49.556;6.286;2023-03-20T09:56:29;18.20;14.00;7.40
51320;PMS5003;38732;49.556;6.286;2023-03-20T09:58:58;15.00;14.60;8.20
51320;PMS5003;38732;49.556;6.286;2023-03-20T10:04:18;18.80;15.80;8.40
51320;PMS5003;38732;49.556;6.286;2023-03-20T10:06:47;27.00;18.00;10.00
51320;PMS5003;38732;49.556;6.286;2023-03-20T10:09:16;20.50;16.50;7.75
51320;PMS5003;38732;49.556;6.286;2023-03-20T10:12:02;17.00;15.00;7.00
51320;PMS5003;38732;49.556;6.286;2023-03-20T10:20:11;11.80;11.80;5.40
51320;PMS5003;38732;49.556;6.286;2023-03-20T10:22:52;13.80;10.00;5.40
51320;PMS5003;38732;49.556;6.286;2023-03-20T10:25:33;10.40;10.20;7.00
51320;PMS5003;38732;49.556;6.286;2023-03-20T10:28:10;8.20;8.00;2.80
51320;PMS5003;38732;49.556;6.286;2023-03-20T10:31:03;13.60;12.00;6.20
51320;PMS5003;38732;49.556;6.286;2023-03-20T10:42:20;13.20;10.00;6.00
51320;PMS5003;38732;49.556;6.286;2023-03-20T10:44:54;14.20;11.40;6.60
51320;PMS5003;38732;49.556;6.286;2023-03-20T10:47:26;10.20;8.00;3.80
51320;PMS5003;38732;49.556;6.286;2023-03-20T10:49:58;11.60;11.40;6.40
51320;PMS5003;38732;49.556;6.286;2023-03-20T10:52:34;16.80;12.20;7.40
51320;PMS5003;38732;49.556;6.286;2023-03-20T10:55:09;12.80;11.60;6.00
51320;PMS5003;38732;49.556;6.286;2023-03-20T10:57:43;14.40;11.80;6.00
51320;PMS5003;38732;49.556;6.286;2023-03-20T11:00:18;9.40;9.20;6.00
51320;PMS5003;38732;49.556;6.286;2023-03-20T11:02:49;7.80;7.80;3.40
51320;PMS5003;38732;49.556;6.286;2023-03-20T11:05:30;12.75;12.00;6.00
51320;PMS5003;38732;49.556;6.286;2023-03-20T11:10:34;9.00;9.00;5.00
51320;PMS5003;38732;49.556;6.286;2023-03-20T11:13:14;10.80;10.80;6.60
51320;PMS5003;38732;49.556;6.286;2023-03-20T11:15:53;10.20;6.80;4.00
51320;PMS5003;38732;49.556;6.286;2023-03-20T11:18:25;8.25;7.00;4.50
51320;PMS5003;38732;49.556;6.286;2023-03-20T11:20:54;3.20;3.20;2.00
51320;PMS5003;38732;49.556;6.286;2023-03-20T11:23:25;7.80;6.20;2.00
51320;PMS5003;38732;49.556;6.286;2023-03-20T11:25:58;6.00;6.00;2.00
51320;PMS5003;38732;49.556;6.286;2023-03-20T11:28:31;5.40;3.80;2.00
51320;PMS5003;38732;49.556;6.286;2023-03-20T11:33:41;7.80;6.60;2.80
51320;PMS5003;38732;49.556;6.286;2023-03-20T11:36:19;7.40;5.40;3.00
51320;PMS5003;38732;49.556;6.286;2023-03-20T11:38:52;4.40;4.40;2.40
51320;PMS5003;38732;49.556;6.286;2023-03-20T11:41:28;5.80;5.80;2.00
51320;PMS5003;38732;49.556;6.286;2023-03-20T11:43:56;4.00;2.50;1.25
51320;PMS5003;38732;49.556;6.286;2023-03-20T11:46:24;5.00;5.00;1.50
51320;PMS5003;38732;49.556;6.286;2023-03-20T11:49:06;4.00;4.00;2.00
51320;PMS5003;38732;49.556;6.286;2023-03-20T11:51:47;5.40;5.00;3.00
51320;PMS5003;38732;49.556;6.286;2023-03-20T11:54:19;5.50;5.50;2.00
51320;PMS5003;38732;49.556;6.286;2023-03-20T11:56:59;5.60;4.00;2.00
51320;PMS5003;38732;49.556;6.286;2023-03-20T11:59:31;8.00;5.00;2.00
51320;PMS5003;38732;49.556;6.286;2023-03-20T12:02:03;8.00;6.60;2.20
51320;PMS5003;38732;49.556;6.286;2023-03-20T12:04:43;8.20;5.00;1.40
51320;PMS5003;38732;49.556;6.286;2023-03-20T12:10:02;5.20;4.20;2.00
51320;PMS5003;38732;49.556;6.286;2023-03-20T12:15:43;6.60;6.00;2.60
51320;PMS5003;38732;49.556;6.286;2023-03-20T12:24:12;6.40;5.60;3.00
51320;PMS5003;38732;49.556;6.286;2023-03-20T12:26:53;3.40;3.40;2.20
51320;PMS5003;38732;49.556;6.286;2023-03-20T12:30:12;5.20;4.00;2.00
51320;PMS5003;38732;49.556;6.286;2023-03-20T12:32:30;3.00;3.00;2.60
51320;PMS5003;38732;49.556;6.286;2023-03-20T12:35:11;2.00;2.00;1.00
51320;PMS5003;38732;49.556;6.286;2023-03-20T12:37:45;3.80;3.00;2.00
51320;PMS5003;38732;49.556;6.286;2023-03-20T12:40:15;10.00;5.25;3.00
51320;PMS5003;38732;49.556;6.286;2023-03-20T12:43:04;8.60;6.00;4.20
51320;PMS5003;38732;49.556;6.286;2023-03-20T12:45:52;6.60;5.20;2.80
51320;PMS5003;38732;49.556;6.286;2023-03-20T12:48:35;7.40;6.40;3.00
51320;PMS5003;38732;49.556;6.286;2023-03-20T12:51:26;7.80;6.00;3.00
51320;PMS5003;38732;49.556;6.286;2023-03-20T12:57:18;6.20;6.00;3.00
51320;PMS5003;38732;49.556;6.286;2023-03-20T13:00:10;4.00;2.40;0.40
51320;PMS5003;38732;49.556;6.286;2023-03-20T13:06:01;6.00;6.00;3.00
51320;PMS5003;38732;49.556;6.286;2023-03-20T13:11:39;8.40;5.00;3.00
51320;PMS5003;38732;49.556;6.286;2023-03-20T13:14:20;5.00;5.00;4.20
51320;PMS5003;38732;49.556;6.286;2023-03-20T13:16:53;6.60;3.60;2.00
51320;PMS5003;38732;49.556;6.286;2023-03-20T13:22:19;6.80;5.20;3.00
51320;PMS5003;38732;49.556;6.286;2023-03-20T13:30:42;4.40;4.40;2.00
51320;PMS5003;38732;49.556;6.286;2023-03-20T13:33:23;6.40;3.00;2.00
51320;PMS5003;38732;49.556;6.286;2023-03-20T13:36:24;6.00;6.00;3.00
51320;PMS5003;38732;49.556;6.286;2023-03-20T13:38:57;6.00;5.00;2.00
51320;PMS5003;38732;49.556;6.286;2023-03-20T13:41:31;5.00;4.60;3.00
51320;PMS5003;38732;49.556;6.286;2023-03-20T13:44:03;2.60;2.60;2.00
51320;PMS5003;38732;49.556;6.286;2023-03-20T13:46:53;3.80;3.80;2.60
51320;PMS5003;38732;49.556;6.286;2023-03-20T13:49:51;5.60;3.60;2.00
51320;PMS5003;38732;49.556;6.286;2023-03-20T13:52:44;4.20;4.20;2.00
51320;PMS5003;38732;49.556;6.286;2023-03-20T13:58:12;3.60;3.20;3.20
51320;PMS5003;38732;49.556;6.286;2023-03-20T14:00:48;9.60;5.40;2.40
51320;PMS5003;38732;49.556;6.286;2023-03-20T14:03:25;4.20;4.20;2.00
51320;PMS5003;38732;49.556;6.286;2023-03-20T14:05:58;2.60;2.60;1.00
51320;PMS5003;38732;49.556;6.286;2023-03-20T14:13:37;5.00;5.00;2.00
51320;PMS5003;38732;49.556;6.286;2023-03-20T14:16:11;6.00;6.00;5.00
51320;PMS5003;38732;49.556;6.286;2023-03-20T14:18:43;5.20;5.20;2.00
51320;PMS5003;38732;49.556;6.286;2023-03-20T14:21:17;3.40;3.40;2.00
51320;PMS5003;38732;49.556;6.286;2023-03-20T14:23:50;5.60;3.20;2.00
51320;PMS5003;38732;49.556;6.286;2023-03-20T14:26:29;5.60;4.00;2.40
51320;PMS5003;38732;49.556;6.286;2023-03-20T14:29:19;2.60;1.60;1.40
51320;PMS5003;38732;49.556;6.286;2023-03-20T14:32:02;2.60;2.60;1.80
51320;PMS5003;38732;49.556;6.286;2023-03-20T14:35:00;6.00;3.20;2.00
51320;PMS5003;38732;49.556;6.286;2023-03-20T14:40:56;3.20;3.20;1.20
51320;PMS5003;38732;49.556;6.286;2023-03-20T14:46:24;4.80;4.80;2.00
51320;PMS5003;38732;49.556;6.286;2023-03-20T14:49:03;6.40;2.60;1.20
51320;PMS5003;38732;49.556;6.286;2023-03-20T14:57:45;3.40;3.40;2.00
51320;PMS5003;38732;49.556;6.286;2023-03-20T15:03:13;4.00;3.00;2.00
51320;PMS5003;38732;49.556;6.286;2023-03-20T15:05:44;3.00;3.00;2.00
51320;PMS5003;38732;49.556;6.286;2023-03-20T15:08:17;2.80;2.20;1.00
51320;PMS5003;38732;49.556;6.286;2023-03-20T15:10:52;2.80;2.80;2.00
51320;PMS5003;38732;49.556;6.286;2023-03-20T15:13:23;4.60;1.00;0.80
51320;PMS5003;38732;49.556;6.286;2023-03-20T15:15:54;3.00;3.00;1.00
51320;PMS5003;38732;49.556;6.286;2023-03-20T15:18:24;2.00;2.00;1.00
51320;PMS5003;38732;49.556;6.286;2023-03-20T15:20:54;4.80;3.20;1.00
51320;PMS5003;38732;49.556;6.286;2023-03-20T15:23:23;6.00;3.00;1.80
51320;PMS5003;38732;49.556;6.286;2023-03-20T15:25:52;3.25;2.25;2.00
51320;PMS5003;38732;49.556;6.286;2023-03-20T15:28:24;6.75;3.00;2.00
51320;PMS5003;38732;49.556;6.286;2023-03-20T15:30:55;3.20;3.20;1.60
51320;PMS5003;38732;49.556;6.286;2023-03-20T15:33:26;5.00;4.20;1.40
51320;PMS5003;38732;49.556;6.286;2023-03-20T15:36:05;4.00;4.00;2.00
51320;PMS5003;38732;49.556;6.286;2023-03-20T15:38:38;5.20;2.00;1.00
51320;PMS5003;38732;49.556;6.286;2023-03-20T15:41:07;4.50;4.50;2.00
51320;PMS5003;38732;49.556;6.286;2023-03-20T15:43:35;2.00;2.00;1.00
51320;PMS5003;38732;49.556;6.286;2023-03-20T15:46:03;3.25;2.00;1.00
51320;PMS5003;38732;49.556;6.286;2023-03-20T15:48:32;4.50;3.00;1.00
51320;PMS5003;38732;49.556;6.286;2023-03-20T15:51:01;7.00;6.25;2.75
51320;PMS5003;38732;49.556;6.286;2023-03-20T15:53:33;1.40;1.00;0.00
51320;PMS5003;38732;49.556;6.286;2023-03-20T15:58:34;4.60;2.80;1.00
51320;PMS5003;38732;49.556;6.286;2023-03-20T16:01:03;4.20;4.20;1.60
51320;PMS5003;38732;49.556;6.286;2023-03-20T16:03:34;6.00;4.60;2.00
51320;PMS5003;38732;49.556;6.286;2023-03-20T16:06:06;3.00;3.00;2.00
51320;PMS5003;38732;49.556;6.286;2023-03-20T16:08:37;2.80;2.80;2.20
51320;PMS5003;38732;49.556;6.286;2023-03-20T16:11:06;3.00;3.00;1.25
51320;PMS5003;38732;49.556;6.286;2023-03-20T16:13:44;4.20;3.00;2.00
51320;PMS5003;38732;49.556;6.286;2023-03-20T16:16:15;5.00;4.20;2.60
51320;PMS5003;38732;49.556;6.286;2023-03-20T16:18:46;2.00;2.00;1.00
51320;PMS5003;38732;49.556;6.286;2023-03-20T16:21:20;5.00;4.50;3.50
51320;PMS5003;38732;49.556;6.286;2023-03-20T16:23:52;6.00;5.00;3.60
51320;PMS5003;38732;49.556;6.286;2023-03-20T16:26:23;8.20;6.40;2.00
51320;PMS5003;38732;49.556;6.286;2023-03-20T16:28:54;7.60;5.00;4.00